Time;durP1;ratioP1;P1;durP2;ratioP2;P2;SDS_P1;SDS_P2;PMS_P1;PMS_P2;Temp;Humidity;BMP_temperature;BMP_pressure;BME280_temperature;BME280_humidity;BME280_pressure;Samples;Min_cycle;Max_cycle;Signal;HPM_P1;HPM_P2
2022/12/23 06:02:23;;;;;;;1.30;0.50;;;11.80;99.90;;;;;;5438290;23;20116;-78
2022/12/23 06:04:49;;;;;;;1.20;0.30;;;11.70;99.90;;;;;;4898852;29;20029;-79
2022/12/23 06:07:15;;;;;;;0.88;0.32;;;11.70;99.90;;;;;;4880939;29;20067;-78
2022/12/23 06:09:41;;;;;;;1.50;0.60;;;11.70;99.90;;;;;;4910785;29;20056;-79
2022/12/23 06:12:08;;;;;;;1.88;0.60;;;11.60;99.90;;;;;;4878715;29;20041;-79
2022/12/23 06:14:34;;;;;;;2.33;0.82;;;11.60;99.90;;;;;;4895077;29;20092;-79
2022/12/23 06:16:59;;;;;;;2.25;0.63;;;11.60;99.90;;;;;;4894022;29;20096;-79
2022/12/23 06:19:25;;;;;;;1.90;0.65;;;11.50;99.90;;;;;;4890278;29;20025;-79
2022/12/23 06:21:51;;;;;;;1.50;0.40;;;11.50;99.90;;;;;;4912985;29;20032;-79
2022/12/23 06:24:17;;;;;;;1.25;0.43;;;11.60;99.90;;;;;;4914163;29;20034;-79
2022/12/23 06:26:45;;;;;;;1.35;0.40;;;11.50;99.90;;;;;;4898549;29;20285;-79
2022/12/23 06:29:13;;;;;;;14.57;9.30;;;11.50;99.90;;;;;;4895677;29;20247;-79
2022/12/23 06:31:44;;;;;;;11.07;8.95;;;11.50;99.90;;;;;;4913186;29;20044;-79
2022/12/23 06:34:13;;;;;;;9.35;5.63;;;11.40;99.90;;;;;;4912856;29;20029;-78
2022/12/23 06:36:38;;;;;;;3.08;1.23;;;11.40;99.90;;;;;;4899691;29;20032;-78
2022/12/23 06:39:04;;;;;;;3.10;0.80;;;11.40;99.90;;;;;;4894478;29;20025;-78
2022/12/23 06:41:32;;;;;;;1.95;1.00;;;11.40;99.90;;;;;;4894447;29;20057;-80
2022/12/23 06:44:03;;;;;;;3.78;1.23;;;11.30;99.90;;;;;;4893785;29;20047;-79
2022/12/23 06:46:35;;;;;;;2.03;0.90;;;11.40;99.90;;;;;;4894107;29;20033;-79
2022/12/23 06:49:01;;;;;;;2.85;1.08;;;11.30;99.90;;;;;;4877165;29;20059;-80
2022/12/23 06:51:27;;;;;;;4.32;1.33;;;11.20;99.90;;;;;;4861907;29;20028;-80
2022/12/23 06:53:57;;;;;;;9.23;7.03;;;11.30;99.90;;;;;;4893747;29;20337;-80
2022/12/23 06:56:23;;;;;;;4.68;3.10;;;11.30;99.90;;;;;;4876719;29;20021;-80
2022/12/23 06:58:51;;;;;;;3.08;0.90;;;11.30;99.90;;;;;;4892283;29;20037;-79
2022/12/23 07:01:17;;;;;;;3.05;1.10;;;11.30;99.90;;;;;;4895412;29;20024;-77
2022/12/23 07:03:43;;;;;;;3.10;0.90;;;11.30;99.90;;;;;;4910245;29;20086;-78
2022/12/23 07:06:11;;;;;;;2.55;1.20;;;11.20;99.90;;;;;;4909997;29;20555;-78
2022/12/23 07:08:40;;;;;;;2.60;1.00;;;11.20;99.90;;;;;;4892988;29;20112;-75
2022/12/23 07:11:05;;;;;;;1.83;0.85;;;11.20;99.90;;;;;;4910058;29;20092;-78
2022/12/23 07:13:48;;;;;;;;;;;;;;;;;;;;;
2022/12/23 07:16:22;;;;;;;3.00;1.00;;;11.20;99.90;;;;;;4909662;29;20072;-78
2022/12/23 07:18:47;;;;;;;2.80;0.90;;;11.20;99.90;;;;;;4910216;29;20060;-78
2022/12/23 07:21:16;;;;;;;1.70;0.95;;;11.20;99.90;;;;;;4908256;29;20158;-78
2022/12/23 07:23:42;;;;;;;1.50;0.80;;;11.20;99.90;;;;;;4909540;29;20318;-76
2022/12/23 07:26:22;;;;;;;2.70;0.90;;;11.20;99.90;;;;;;4908800;29;20036;-79
2022/12/23 07:28:51;;;;;;;3.47;1.20;;;11.20;99.90;;;;;;4909182;29;20322;-78
2022/12/23 07:31:17;;;;;;;3.83;1.33;;;11.20;99.90;;;;;;4909559;29;20043;-79
2022/12/23 07:33:43;;;;;;;2.20;1.13;;;11.30;99.90;;;;;;4909418;29;20034;-79
2022/12/23 07:36:09;;;;;;;3.88;1.33;;;11.30;99.90;;;;;;4879625;29;20326;-79
2022/12/23 07:38:35;;;;;;;3.95;1.38;;;11.30;99.90;;;;;;4855860;29;20029;-78
2022/12/23 07:41:01;;;;;;;2.65;1.10;;;11.30;99.90;;;;;;4855110;29;20101;-77
2022/12/23 07:43:26;;;;;;;2.45;1.20;;;11.30;99.90;;;;;;4871381;29;20041;-79
2022/12/23 07:45:52;;;;;;;2.90;1.38;;;11.30;99.90;;;;;;4871217;29;20302;-76
2022/12/23 07:48:18;;;;;;;3.97;1.70;;;11.30;99.90;;;;;;4875652;29;20033;-75
2022/12/23 07:50:43;;;;;;;4.28;1.60;;;11.40;99.90;;;;;;4871127;29;20037;-75
2022/12/23 07:53:09;;;;;;;3.83;1.90;;;11.40;99.90;;;;;;4869860;29;20041;-80
2022/12/23 07:55:35;;;;;;;4.18;1.88;;;11.40;99.90;;;;;;4871296;29;20407;-79
2022/12/23 07:58:01;;;;;;;4.38;2.20;;;11.50;99.90;;;;;;4855049;29;20033;-80
2022/12/23 08:00:33;;;;;;;3.10;1.80;;;11.50;99.90;;;;;;4855044;29;20030;-80
2022/12/23 08:02:58;;;;;;;4.43;1.80;;;11.50;99.90;;;;;;4865656;29;20379;-79
2022/12/23 08:05:24;;;;;;;4.55;1.75;;;11.50;99.90;;;;;;4867377;29;20117;-80
2022/12/23 08:07:53;;;;;;;3.28;1.50;;;11.50;99.90;;;;;;4867294;29;20066;-80
2022/12/23 08:10:18;;;;;;;;;;;11.50;99.90;;;;;;4837249;29;20033;-81
2022/12/23 08:12:47;;;;;;;4.03;1.80;;;11.50;99.90;;;;;;4851813;29;19949;-80
2022/12/23 08:15:13;;;;;;;3.90;2.03;;;11.50;99.90;;;;;;4866109;29;20030;-79
2022/12/23 08:17:39;;;;;;;4.80;2.03;;;11.50;99.90;;;;;;4852478;29;20360;-79
2022/12/23 08:20:05;;;;;;;5.68;1.85;;;11.60;99.90;;;;;;4852112;29;20101;-80
2022/12/23 08:22:31;;;;;;;3.05;1.00;;;11.60;99.90;;;;;;4866545;29;20042;-80
2022/12/23 08:25:00;;;;;;;2.15;0.98;;;11.60;99.90;;;;;;4870282;29;20048;-80
2022/12/23 08:27:28;;;;;;;;;;;11.70;99.90;;;;;;4871596;29;20034;-79
2022/12/23 08:29:57;;;;;;;2.92;1.20;;;11.80;99.90;;;;;;4871222;29;20024;-80
2022/12/23 08:32:34;;;;;;;3.63;1.40;;;11.80;99.90;;;;;;4870773;29;20023;-79
2022/12/23 08:35:00;;;;;;;3.95;1.20;;;11.90;99.90;;;;;;4865722;29;20128;-79
2022/12/23 08:37:26;;;;;;;3.17;1.50;;;11.90;99.90;;;;;;4866606;29;20033;-78
2022/12/23 08:39:51;;;;;;;5.35;2.22;;;12.00;99.90;;;;;;4852047;29;20041;-78
2022/12/23 08:42:17;;;;;;;4.03;2.13;;;12.00;99.90;;;;;;4866373;29;20128;-77
2022/12/23 08:44:43;;;;;;;6.28;1.90;;;12.00;99.90;;;;;;4853506;29;20034;-77
2022/12/23 08:47:08;;;;;;;3.40;1.92;;;12.00;99.90;;;;;;4852553;29;20268;-79
2022/12/23 08:49:35;;;;;;;5.10;2.03;;;11.90;99.90;;;;;;4853285;29;20061;-79
2022/12/23 08:52:02;;;;;;;7.28;2.05;;;11.90;99.90;;;;;;4851493;29;20223;-79
2022/12/23 08:54:28;;;;;;;5.93;2.08;;;11.90;99.90;;;;;;4850657;29;20086;-80
2022/12/23 08:56:54;;;;;;;4.97;2.05;;;11.80;99.90;;;;;;4836332;29;20030;-79
2022/12/23 08:59:19;;;;;;;7.95;3.45;;;11.80;99.90;;;;;;4852125;29;20030;-79
2022/12/23 09:01:46;;;;;;;9.32;5.50;;;11.80;99.90;;;;;;4868237;29;20041;-79
2022/12/23 09:04:11;;;;;;;8.05;3.70;;;11.80;99.90;;;;;;4867852;29;20065;-80
2022/12/23 09:06:40;;;;;;;10.15;3.60;;;11.80;99.90;;;;;;4888572;29;20021;-78
2022/12/23 09:09:06;;;;;;;2.67;1.33;;;11.90;99.90;;;;;;4891046;29;20037;-80
2022/12/23 09:11:40;;;;;;;3.35;1.55;;;12.00;99.90;;;;;;4890960;29;20021;-80
2022/12/23 09:14:10;;;;;;;3.17;1.75;;;12.00;99.90;;;;;;4872889;29;20041;-80
2022/12/23 09:16:37;;;;;;;5.22;2.38;;;12.10;99.90;;;;;;4889445;29;20025;-78
2022/12/23 09:19:03;;;;;;;5.15;1.20;;;12.10;99.90;;;;;;4889993;29;20045;-78
2022/12/23 09:21:29;;;;;;;2.97;0.90;;;12.20;99.90;;;;;;4890039;29;20089;-80
2022/12/23 09:24:10;;;;;;;4.10;1.63;;;12.20;99.90;;;;;;4857346;29;20049;-80
2022/12/23 09:27:04;;;;;;;6.30;2.60;;;12.20;99.90;;;;;;4868492;29;20038;-79
2022/12/23 09:29:36;;;;;;;2.88;1.00;;;12.30;99.90;;;;;;4871558;29;20041;-77
2022/12/23 09:32:02;;;;;;;7.68;2.72;;;12.30;99.90;;;;;;4872656;29;20031;-80
2022/12/23 09:34:28;;;;;;;8.50;3.15;;;12.40;99.90;;;;;;4879904;29;20049;-78
2022/12/23 09:36:53;;;;;;;8.15;2.88;;;12.40;99.90;;;;;;4882458;29;20042;-79
2022/12/23 09:39:22;;;;;;;5.72;2.20;;;12.40;99.90;;;;;;4881351;29;20033;-77
2022/12/23 09:42:00;;;;;;;11.68;5.18;;;12.50;99.90;;;;;;4882556;29;20020;-79
2022/12/23 09:44:51;;;;;;;8.57;3.03;;;12.50;99.90;;;;;;4881411;29;20069;-79
2022/12/23 09:47:21;;;;;;;9.35;4.45;;;12.60;99.90;;;;;;4875814;29;20045;-81
2022/12/23 09:49:52;;;;;;;3.72;1.42;;;12.60;99.90;;;;;;4884611;29;20064;-78
2022/12/23 09:52:57;;;;;;;2.70;1.40;;;12.60;99.90;;;;;;4869943;29;20045;-80
2022/12/23 09:55:47;;;;;;;2.42;0.60;;;12.60;99.90;;;;;;4869320;29;20033;-82
2022/12/23 09:58:25;;;;;;;1.42;0.60;;;12.60;99.90;;;;;;4868535;29;20116;-79
2022/12/23 10:01:20;;;;;;;1.40;0.40;;;12.60;99.90;;;;;;4868904;29;20060;-78
2022/12/23 10:04:28;;;;;;;1.67;0.30;;;12.60;99.90;;;;;;4885780;29;20049;-78
2022/12/23 10:07:02;;;;;;;1.10;0.30;;;12.70;99.90;;;;;;4877825;29;20096;-79
2022/12/23 10:09:36;;;;;;;2.38;0.50;;;12.70;99.90;;;;;;4887886;29;20025;-77
2022/12/23 10:12:15;;;;;;;2.25;0.60;;;12.70;99.90;;;;;;4887242;29;20385;-79
2022/12/23 10:14:43;;;;;;;2.60;0.68;;;12.70;99.90;;;;;;4888141;29;20100;-78
2022/12/23 10:17:25;;;;;;;1.55;0.60;;;12.60;99.90;;;;;;4887349;29;20215;-78
2022/12/23 10:19:56;;;;;;;1.48;0.30;;;12.60;99.90;;;;;;4887534;29;20092;-78
2022/12/23 10:22:37;;;;;;;2.13;0.50;;;12.70;99.90;;;;;;4879207;29;20362;-78
2022/12/23 10:25:13;;;;;;;2.13;0.45;;;12.70;99.90;;;;;;4880466;29;20116;-79
2022/12/23 10:27:40;;;;;;;2.53;0.32;;;12.70;99.90;;;;;;4869371;29;20037;-78
2022/12/23 10:30:15;;;;;;;1.27;0.47;;;12.80;99.90;;;;;;4873683;29;20153;-79
2022/12/23 10:32:53;;;;;;;1.73;0.40;;;12.80;99.90;;;;;;4860382;29;20077;-75
2022/12/23 10:35:56;;;;;;;1.85;0.32;;;12.90;99.90;;;;;;4887161;29;20043;-75
2022/12/23 10:38:47;;;;;;;2.47;0.40;;;12.90;99.90;;;;;;4889286;29;20346;-75
2022/12/23 10:41:22;;;;;;;1.27;0.40;;;13.00;99.90;;;;;;4873601;29;20040;-75
2022/12/23 10:43:57;;;;;;;1.35;0.60;;;13.00;99.90;;;;;;4890532;29;20061;-75
2022/12/23 10:46:22;;;;;;;1.20;0.47;;;13.10;99.90;;;;;;4890681;29;20518;-76
2022/12/23 10:49:02;;;;;;;1.20;0.55;;;13.20;99.90;;;;;;4890486;29;20025;-75
2022/12/23 10:51:40;;;;;;;2.25;0.50;;;13.20;99.90;;;;;;4873822;29;20033;-75
2022/12/23 10:54:14;;;;;;;1.63;0.40;;;13.30;99.90;;;;;;4890407;29;20061;-76
2022/12/23 10:56:41;;;;;;;4.90;1.35;;;13.40;99.90;;;;;;4890896;29;20037;-76
2022/12/23 10:59:13;;;;;;;3.65;1.20;;;13.40;99.90;;;;;;4873406;29;20101;-76
2022/12/23 11:01:40;;;;;;;5.88;1.52;;;13.30;99.90;;;;;;4890114;29;20073;-76
2022/12/23 11:04:16;;;;;;;5.20;1.48;;;13.20;99.90;;;;;;4889884;29;20189;-76
2022/12/23 11:06:45;;;;;;;3.70;1.33;;;13.20;99.90;;;;;;4890437;29;20051;-76
2022/12/23 11:09:23;;;;;;;5.22;2.55;;;13.10;99.90;;;;;;4890294;29;20029;-76
2022/12/23 11:11:53;;;;;;;7.50;1.98;;;13.00;99.90;;;;;;4890604;29;20062;-75
2022/12/23 11:14:29;;;;;;;4.15;1.50;;;13.00;99.90;;;;;;4889587;29;20037;-75
2022/12/23 11:16:54;;;;;;;5.82;1.90;;;13.00;99.90;;;;;;4890539;29;20033;-75
2022/12/23 11:19:20;;;;;;;5.10;2.10;;;12.90;99.90;;;;;;4890028;29;20096;-75
2022/12/23 11:21:57;;;;;;;3.75;2.00;;;12.90;99.90;;;;;;4889972;29;20044;-76
2022/12/23 11:24:25;;;;;;;5.35;2.00;;;12.90;99.90;;;;;;4890047;29;20051;-76
2022/12/23 11:27:05;;;;;;;3.37;1.60;;;12.90;99.90;;;;;;4890042;29;20029;-75
2022/12/23 11:29:37;;;;;;;3.58;1.33;;;12.90;99.90;;;;;;4890233;29;20041;-75
2022/12/23 11:32:33;;;;;;;4.15;1.60;;;13.00;99.90;;;;;;4889633;29;20203;-75
2022/12/23 11:34:59;;;;;;;4.60;1.60;;;13.00;99.90;;;;;;4889280;29;20032;-75
2022/12/23 11:37:40;;;;;;;3.63;1.20;;;13.10;99.90;;;;;;4889800;29;20031;-75
2022/12/23 11:40:20;;;;;;;4.05;1.55;;;13.10;99.90;;;;;;4885446;29;20230;-75
2022/12/23 11:42:46;;;;;;;2.80;1.40;;;13.10;99.90;;;;;;4890200;29;20028;-76
2022/12/23 11:45:21;;;;;;;3.00;1.63;;;13.10;99.90;;;;;;4889156;29;20041;-76
2022/12/23 11:47:47;;;;;;;6.22;1.90;;;13.20;99.90;;;;;;4889674;29;20093;-76
2022/12/23 11:50:25;;;;;;;3.42;1.65;;;13.20;99.90;;;;;;4884161;29;20224;-76
2022/12/23 11:52:54;;;;;;;3.07;1.33;;;13.30;99.90;;;;;;4889885;29;20039;-76
2022/12/23 11:55:31;;;;;;;3.55;1.70;;;13.20;99.90;;;;;;4888995;29;20041;-76
2022/12/23 11:57:59;;;;;;;3.88;1.55;;;13.30;99.90;;;;;;4888538;29;20040;-76
2022/12/23 12:00:39;;;;;;;4.63;1.77;;;13.30;99.90;;;;;;4888917;29;20219;-76
2022/12/23 12:03:07;;;;;;;5.55;1.80;;;13.30;99.90;;;;;;4884816;29;20061;-76
2022/12/23 12:05:36;;;;;;;4.97;1.85;;;13.40;99.90;;;;;;4870761;29;20037;-76
2022/12/23 12:08:10;;;;;;;5.82;2.15;;;13.40;99.90;;;;;;4871044;29;20322;-76
2022/12/23 12:10:38;;;;;;;4.82;2.22;;;13.40;99.90;;;;;;4869464;29;20223;-76
2022/12/23 12:13:22;;;;;;;7.18;2.40;;;13.40;99.90;;;;;;4853941;29;20231;-76
2022/12/23 12:15:56;;;;;;;5.15;2.60;;;13.40;99.90;;;;;;4870804;29;20040;-76
2022/12/23 12:18:23;;;;;;;7.05;3.15;;;13.40;99.90;;;;;;4870468;29;20188;-77
2022/12/23 12:20:55;;;;;;;7.07;4.30;;;13.40;99.90;;;;;;4870311;29;20033;-75
2022/12/23 12:23:42;;;;;;;7.68;4.70;;;13.40;99.90;;;;;;4869857;29;20387;-76
2022/12/23 12:26:38;;;;;;;4.88;2.70;;;13.40;99.90;;;;;;4876286;29;20196;-76
2022/12/23 12:29:35;;;;;;;6.03;2.58;;;13.40;99.90;;;;;;4879371;29;20040;-76
2022/12/23 12:32:03;;;;;;;7.05;2.30;;;13.30;99.90;;;;;;4885354;29;20049;-75
2022/12/23 12:34:38;;;;;;;7.70;2.73;;;13.30;99.90;;;;;;4888567;29;20459;-75
2022/12/23 12:37:38;;;;;;;4.25;2.42;;;13.20;99.90;;;;;;4884582;29;20277;-75
2022/12/23 12:40:45;;;;;;;5.15;2.55;;;13.20;99.90;;;;;;4872323;29;20188;-75
2022/12/23 12:43:33;;;;;;;8.23;2.80;;;13.30;99.90;;;;;;4812717;29;20054;-76
2022/12/23 12:46:17;;;;;;;4.20;2.30;;;13.20;99.90;;;;;;4884521;29;20076;-76
2022/12/23 12:48:49;;;;;;;5.85;2.70;;;13.20;99.90;;;;;;4872429;29;20032;-75
2022/12/23 12:51:57;;;;;;;6.53;4.05;;;13.20;99.90;;;;;;4888104;29;20033;-76
2022/12/23 12:54:26;;;;;;;;;;;13.20;99.90;;;;;;4879342;29;20108;-76
2022/12/23 12:56:57;;;;;;;6.43;2.90;;;13.30;99.90;;;;;;4888674;29;19943;-76
2022/12/23 12:59:41;;;;;;;5.03;2.22;;;13.30;99.90;;;;;;4887793;29;20263;-76
2022/12/23 13:02:25;;;;;;;4.13;1.25;;;13.30;99.90;;;;;;4868270;29;20057;-76
2022/12/23 13:05:00;;;;;;;4.03;1.50;;;13.30;99.90;;;;;;4869947;29;20044;-77
2022/12/23 13:07:26;;;;;;;7.82;1.67;;;13.30;99.90;;;;;;4869196;29;20096;-76
2022/12/23 13:10:12;;;;;;;2.00;0.90;;;13.30;99.90;;;;;;4870045;29;20309;-76
2022/12/23 13:12:41;;;;;;;2.80;1.08;;;13.40;99.90;;;;;;4869977;29;20033;-76
2022/12/23 13:15:22;;;;;;;2.05;0.82;;;13.40;99.90;;;;;;4869889;29;20045;-75
2022/12/23 13:18:39;;;;;;;1.98;0.80;;;13.50;99.90;;;;;;4869877;29;20033;-75
2022/12/23 13:21:21;;;;;;;3.90;0.87;;;13.60;99.90;;;;;;4853877;29;20069;-77
2022/12/23 13:24:11;;;;;;;1.63;0.55;;;13.60;99.90;;;;;;4869746;29;20037;-76
2022/12/23 13:26:52;;;;;;;2.95;0.90;;;13.70;99.90;;;;;;4869742;29;20056;-77
2022/12/23 13:29:24;;;;;;;1.80;0.80;;;13.70;99.90;;;;;;4869305;29;20029;-76
2022/12/23 13:32:10;;;;;;;2.88;1.08;;;13.70;99.90;;;;;;4869577;29;20302;-76
2022/12/23 13:34:51;;;;;;;1.65;0.60;;;13.70;99.90;;;;;;4868977;29;20041;-76
2022/12/23 13:37:31;;;;;;;7.30;3.60;;;13.70;99.90;;;;;;4895283;29;20047;-76
2022/12/23 13:40:22;;;;;;;3.08;1.90;;;13.70;99.90;;;;;;4906922;29;20207;-76
2022/12/23 13:42:54;;;;;;;2.40;1.40;;;13.70;99.90;;;;;;4906797;29;20281;-75
2022/12/23 13:45:25;;;;;;;3.10;1.48;;;13.70;99.90;;;;;;4906411;29;20033;-77
2022/12/23 13:48:14;;;;;;;2.10;0.60;;;13.70;99.90;;;;;;4906671;29;20036;-74
2022/12/23 13:51:45;;;;;;;2.05;0.70;;;13.70;99.90;;;;;;4890248;29;20214;-76
2022/12/23 13:54:17;;;;;;;1.25;0.50;;;13.70;99.90;;;;;;4812352;29;20042;-74
2022/12/23 13:57:10;;;;;;;2.97;0.50;;;13.80;99.90;;;;;;4812464;29;20106;-75
2022/12/23 13:59:38;;;;;;;1.65;0.70;;;13.80;99.90;;;;;;4877312;29;20047;-76
2022/12/23 14:02:24;;;;;;;;;;;13.80;99.90;;;;;;4906636;29;20063;-75
2022/12/23 14:04:57;;;;;;;2.88;0.85;;;13.80;99.90;;;;;;4906355;29;19939;-75
2022/12/23 14:07:23;;;;;;;1.30;0.52;;;13.70;99.90;;;;;;4905794;29;20346;-75
2022/12/23 14:10:09;;;;;;;2.60;1.10;;;13.70;99.90;;;;;;4906606;29;20088;-75
2022/12/23 14:12:38;;;;;;;2.45;0.60;;;13.70;99.90;;;;;;4891538;29;20274;-75
2022/12/23 14:15:58;;;;;;;3.40;0.70;;;13.70;99.90;;;;;;4910295;29;20204;-76
2022/12/23 14:18:41;;;;;;;2.17;0.60;;;13.60;99.90;;;;;;4815115;29;20353;-76
2022/12/23 14:21:44;;;;;;;2.00;0.80;;;13.60;99.90;;;;;;4901666;29;20052;-75
2022/12/23 14:24:35;;;;;;;2.08;0.50;;;13.60;99.90;;;;;;4910135;29;20040;-76
2022/12/23 14:27:14;;;;;;;2.35;0.80;;;13.50;99.90;;;;;;4893550;29;20247;-76
2022/12/23 14:29:46;;;;;;;1.92;0.70;;;13.40;99.90;;;;;;4909617;29;20032;-76
2022/12/23 14:32:42;;;;;;;1.35;0.50;;;13.40;99.90;;;;;;4910161;29;20067;-75
2022/12/23 14:35:28;;;;;;;1.25;0.52;;;13.30;99.90;;;;;;4910171;29;20036;-75
2022/12/23 14:38:13;;;;;;;1.98;0.68;;;13.30;99.90;;;;;;4894213;29;20036;-75
2022/12/23 14:40:38;;;;;;;1.13;0.40;;;13.40;99.90;;;;;;4913957;29;20040;-75
2022/12/23 14:43:24;;;;;;;1.60;0.60;;;13.40;99.90;;;;;;4917334;29;20041;-76
2022/12/23 14:46:36;;;;;;;2.10;0.80;;;13.40;99.90;;;;;;4913300;29;20040;-76
2022/12/23 14:49:02;;;;;;;1.52;0.50;;;13.40;99.90;;;;;;4882368;29;20044;-75
2022/12/23 14:51:35;;;;;;;1.27;0.50;;;13.40;99.90;;;;;;4909378;29;20047;-75
2022/12/23 14:54:00;;;;;;;2.42;0.70;;;13.40;99.90;;;;;;4909546;29;20035;-75
2022/12/23 14:56:51;;;;;;;1.67;0.50;;;13.40;99.90;;;;;;4909030;29;20079;-75
2022/12/23 14:59:33;;;;;;;1.88;0.82;;;13.40;99.90;;;;;;4909649;29;20203;-76
2022/12/23 15:02:02;;;;;;;1.48;0.63;;;13.40;99.90;;;;;;4909049;29;20334;-76
2022/12/23 15:04:44;;;;;;;3.92;2.15;;;13.50;99.90;;;;;;4908914;29;20273;-75
2022/12/23 15:07:21;;;;;;;3.83;2.38;;;13.40;99.90;;;;;;4909361;29;20043;-75
2022/12/23 15:09:59;;;;;;;3.00;1.75;;;13.40;99.90;;;;;;4909359;29;20080;-75
2022/12/23 15:12:33;;;;;;;3.20;1.63;;;13.40;99.90;;;;;;4909051;29;20063;-76
2022/12/23 15:15:16;;;;;;;3.15;1.05;;;13.50;99.90;;;;;;4909045;29;20268;-75
2022/12/23 15:17:42;;;;;;;2.88;0.65;;;13.50;99.90;;;;;;4908738;29;20044;-76
2022/12/23 15:20:21;;;;;;;1.35;0.60;;;13.50;99.90;;;;;;4908946;29;20124;-76
2022/12/23 15:22:47;;;;;;;1.85;0.60;;;13.40;99.90;;;;;;4908653;29;20037;-75
2022/12/23 15:25:29;;;;;;;2.40;0.98;;;13.40;99.90;;;;;;4892171;29;20032;-74
2022/12/23 15:27:57;;;;;;;1.27;0.50;;;13.30;99.90;;;;;;4908823;29;20068;-74
2022/12/23 15:30:24;;;;;;;2.03;0.90;;;13.40;99.90;;;;;;4908565;29;20040;-75
2022/12/23 15:32:59;;;;;;;2.22;0.65;;;13.40;99.90;;;;;;4909290;29;20044;-75
2022/12/23 15:35:29;;;;;;;3.03;0.70;;;13.40;99.90;;;;;;4908745;29;20044;-75
2022/12/23 15:37:57;;;;;;;1.92;0.60;;;13.50;99.90;;;;;;4908504;29;20032;-74
2022/12/23 15:40:33;;;;;;;1.88;0.60;;;13.50;99.90;;;;;;4891116;29;20040;-75
2022/12/23 15:43:00;;;;;;;1.85;0.70;;;13.50;99.90;;;;;;4908424;29;20103;-75
2022/12/23 15:45:37;;;;;;;2.33;0.82;;;13.60;99.90;;;;;;4908217;29;20079;-75
2022/12/23 15:48:05;;;;;;;2.30;0.40;;;13.60;99.90;;;;;;4908525;29;20256;-75
2022/12/23 15:50:39;;;;;;;1.73;0.57;;;13.60;99.90;;;;;;4907859;29;20096;-75
2022/12/23 15:53:07;;;;;;;1.67;0.38;;;13.60;99.90;;;;;;4908361;29;20112;-75
2022/12/23 15:55:35;;;;;;;2.20;0.63;;;13.70;99.90;;;;;;4908193;29;20084;-75
2022/12/23 15:58:02;;;;;;;1.92;0.70;;;13.70;99.90;;;;;;4891789;29;20040;-75
2022/12/23 16:00:38;;;;;;;1.63;0.68;;;13.70;99.90;;;;;;4907854;29;20029;-76
2022/12/23 16:03:06;;;;;;;2.22;0.55;;;13.70;99.90;;;;;;4907357;29;20312;-74
2022/12/23 16:05:34;;;;;;;1.10;0.40;;;13.80;99.90;;;;;;4906571;29;20037;-74
2022/12/23 16:08:17;;;;;;;2.83;0.40;;;13.90;99.90;;;;;;4907255;29;20044;-75
2022/12/23 16:10:56;;;;;;;0.95;0.30;;;13.90;99.90;;;;;;4906684;29;20402;-75
2022/12/23 16:13:22;;;;;;;0.68;0.28;;;13.90;99.90;;;;;;4907020;29;20033;-76
2022/12/23 16:15:48;;;;;;;0.75;0.30;;;13.90;99.90;;;;;;4907133;29;20059;-76
2022/12/23 16:18:24;;;;;;;0.85;0.40;;;14.00;99.90;;;;;;4907244;29;20036;-76
2022/12/23 16:20:52;;;;;;;0.90;0.30;;;14.00;99.90;;;;;;4906918;29;20028;-76
2022/12/23 16:23:19;;;;;;;0.93;0.30;;;14.00;99.90;;;;;;4906868;29;20215;-75
2022/12/23 16:25:47;;;;;;;1.88;0.40;;;14.00;99.90;;;;;;4889639;29;20037;-76
2022/12/23 16:28:23;;;;;;;1.15;0.35;;;13.90;99.90;;;;;;4907074;29;20084;-76
2022/12/23 16:30:53;;;;;;;1.23;0.35;;;13.90;99.90;;;;;;4907144;29;20028;-76
2022/12/23 16:33:38;;;;;;;1.17;0.30;;;13.90;99.90;;;;;;4907004;29;20091;-77
2022/12/23 16:36:26;;;;;;;1.60;0.47;;;13.90;99.90;;;;;;4906200;29;20218;-76
2022/12/23 16:38:54;;;;;;;1.33;0.38;;;13.90;99.90;;;;;;4892821;29;20107;-76
2022/12/23 16:41:20;;;;;;;0.95;0.32;;;13.80;99.90;;;;;;4888194;29;20303;-76
2022/12/23 16:43:46;;;;;;;1.33;0.40;;;13.80;99.90;;;;;;4887602;29;20056;-76
2022/12/23 16:46:16;;;;;;;1.48;0.30;;;13.90;99.90;;;;;;4888180;29;20037;-76
2022/12/23 16:48:57;;;;;;;0.77;0.30;;;13.90;99.90;;;;;;4883272;29;20037;-76
2022/12/23 16:51:25;;;;;;;3.25;1.02;;;13.90;99.90;;;;;;4887679;29;20052;-75
2022/12/23 16:53:54;;;;;;;2.00;0.98;;;13.90;99.90;;;;;;4888017;29;20033;-74
2022/12/23 16:56:22;;;;;;;2.85;0.60;;;13.90;99.90;;;;;;4887601;29;20100;-74
2022/12/23 16:58:48;;;;;;;1.63;0.60;;;13.90;99.90;;;;;;4887044;29;20047;-74
2022/12/23 17:01:18;;;;;;;1.65;0.43;;;13.90;99.90;;;;;;4870944;29;20044;-74
2022/12/23 17:03:44;;;;;;;1.73;0.77;;;13.90;99.90;;;;;;4851112;29;1049912;-74
2022/12/23 17:06:14;;;;;;;1.58;0.50;;;13.80;99.90;;;;;;4888296;29;20057;-75
2022/12/23 17:08:40;;;;;;;2.30;0.70;;;13.90;99.90;;;;;;4887706;29;20249;-75
2022/12/23 17:11:15;;;;;;;1.40;0.50;;;13.80;99.90;;;;;;4888613;29;20029;-76
2022/12/23 17:13:41;;;;;;;1.33;0.60;;;13.80;99.90;;;;;;4888005;29;20053;-76
2022/12/23 17:16:15;;;;;;;1.48;0.52;;;13.80;99.90;;;;;;4888540;29;20243;-76
2022/12/23 17:18:40;;;;;;;1.98;0.43;;;13.80;99.90;;;;;;4888144;29;20036;-75
2022/12/23 17:21:23;;;;;;;1.42;0.45;;;13.80;99.90;;;;;;4888191;29;20123;-74
2022/12/23 17:23:51;;;;;;;1.38;0.50;;;13.80;99.90;;;;;;4887672;29;20096;-77
2022/12/23 17:26:17;;;;;;;1.65;0.40;;;13.80;99.90;;;;;;4888253;29;20167;-76
2022/12/23 17:28:43;;;;;;;1.55;0.57;;;13.80;99.90;;;;;;4871060;29;20033;-74
2022/12/23 17:31:09;;;;;;;2.45;0.50;;;13.90;99.90;;;;;;4871749;29;20037;-77
2022/12/23 17:33:35;;;;;;;1.48;0.50;;;13.90;99.90;;;;;;4887777;29;20051;-76
2022/12/23 17:36:00;;;;;;;2.22;0.70;;;13.90;99.90;;;;;;4891364;29;20071;-76
2022/12/23 17:38:29;;;;;;;1.20;0.60;;;13.80;99.90;;;;;;4890229;29;20039;-75
2022/12/23 17:40:57;;;;;;;;;;;13.80;99.90;;;;;;4907174;29;20310;-76
2022/12/23 17:43:24;;;;;;;1.67;0.57;;;13.80;99.90;;;;;;4906996;29;20083;-76
2022/12/23 17:45:50;;;;;;;1.77;0.80;;;13.70;99.90;;;;;;4905965;29;20032;-76
2022/12/23 17:48:15;;;;;;;1.92;0.80;;;13.70;99.90;;;;;;4906389;29;20131;-75
2022/12/23 17:50:42;;;;;;;3.35;1.10;;;13.70;99.90;;;;;;4906364;29;20025;-75
2022/12/23 17:53:16;;;;;;;1.48;0.60;;;13.80;99.90;;;;;;4906442;29;20227;-74
2022/12/23 17:55:42;;;;;;;1.20;0.47;;;13.80;99.90;;;;;;4905768;29;20254;-74
2022/12/23 17:58:09;;;;;;;2.85;0.50;;;13.80;99.90;;;;;;4906691;29;20033;-76
2022/12/23 18:00:36;;;;;;;1.48;0.60;;;13.90;99.90;;;;;;4906176;29;20271;-76
2022/12/23 18:03:06;;;;;;;1.33;0.50;;;13.90;99.90;;;;;;4906324;29;20049;-76
2022/12/23 18:05:34;;;;;;;2.70;0.70;;;14.00;99.90;;;;;;4906009;29;20037;-76
2022/12/23 18:08:01;;;;;;;2.80;0.60;;;14.00;99.90;;;;;;4906594;29;20043;-76
2022/12/23 18:10:36;;;;;;;2.35;0.82;;;14.00;99.90;;;;;;4906244;29;20037;-76
2022/12/23 18:13:05;;;;;;;2.10;0.65;;;13.90;99.90;;;;;;4889873;29;20037;-76
2022/12/23 18:15:36;;;;;;;3.13;0.60;;;13.70;99.90;;;;;;4889060;29;20031;-77
2022/12/23 18:18:18;;;;;;;3.10;1.00;;;13.70;99.90;;;;;;4889901;29;20032;-76
2022/12/23 18:20:46;;;;;;;2.40;1.00;;;13.70;99.90;;;;;;4889271;29;20029;-74
2022/12/23 18:23:26;;;;;;;2.28;0.90;;;13.50;99.90;;;;;;4906355;29;20036;-76
2022/12/23 18:25:52;;;;;;;1.90;0.63;;;13.50;99.90;;;;;;4905605;29;20326;-76
2022/12/23 18:28:18;;;;;;;2.55;0.80;;;13.30;99.90;;;;;;4906379;29;20032;-76
2022/12/23 18:30:44;;;;;;;2.83;0.90;;;13.20;99.90;;;;;;4906097;29;20059;-77
2022/12/23 18:33:11;;;;;;;2.60;0.60;;;13.00;99.90;;;;;;4906631;29;20033;-75
2022/12/23 18:35:47;;;;;;;1.48;0.60;;;13.00;99.90;;;;;;4905442;29;20052;-77
2022/12/23 18:38:14;;;;;;;3.05;0.73;;;13.00;99.90;;;;;;4906337;29;20057;-75
2022/12/23 18:40:40;;;;;;;2.78;0.50;;;13.00;99.90;;;;;;4905867;29;20222;-75
2022/12/23 18:43:23;;;;;;;2.30;0.47;;;13.00;99.90;;;;;;4905963;29;20044;-77
2022/12/23 18:45:49;;;;;;;1.17;0.30;;;12.90;99.90;;;;;;4905578;29;20088;-76
2022/12/23 18:48:15;;;;;;;4.18;0.60;;;12.90;99.90;;;;;;4906123;29;20048;-76
2022/12/23 18:50:41;;;;;;;3.15;0.70;;;12.80;99.90;;;;;;4905661;29;20083;-76
2022/12/23 18:53:15;;;;;;;2.22;0.70;;;12.80;99.90;;;;;;4906060;29;20039;-76
2022/12/23 18:55:40;;;;;;;2.10;0.73;;;12.70;99.90;;;;;;4905448;29;20036;-76
2022/12/23 18:58:09;;;;;;;1.33;0.47;;;12.70;99.90;;;;;;4883586;29;20052;-77
2022/12/23 19:00:34;;;;;;;2.50;0.60;;;12.60;99.90;;;;;;4873663;29;20068;-76
2022/12/23 19:03:00;;;;;;;2.50;0.77;;;12.60;99.90;;;;;;4889303;29;20049;-76
2022/12/23 19:05:29;;;;;;;1.77;0.60;;;12.60;99.90;;;;;;4884334;29;20040;-76
2022/12/23 19:07:56;;;;;;;2.88;0.88;;;12.50;99.90;;;;;;4871628;29;20097;-77
2022/12/23 19:10:28;;;;;;;2.53;0.40;;;12.50;99.90;;;;;;4855652;29;20061;-77
2022/12/23 19:12:54;;;;;;;2.10;0.73;;;12.50;99.90;;;;;;4855040;29;20049;-76
2022/12/23 19:15:21;;;;;;;3.30;0.80;;;12.50;99.90;;;;;;4888683;29;20029;-76
2022/12/23 19:17:47;;;;;;;1.75;0.77;;;12.40;99.90;;;;;;4890280;29;20295;-77
2022/12/23 19:20:15;;;;;;;3.00;1.20;;;12.40;99.90;;;;;;4876839;29;20096;-76
2022/12/23 19:22:41;;;;;;;;;;;12.40;99.90;;;;;;4891829;29;20037;-75